sensor_id;sensor_type;location;lat;lon;timestamp;pressure;altitude;pressure_sealevel;temperature;humidity
37291;BME280;23175;-33.706;151.094;2023-08-30T00:01:25;99674.14;;;16.94;30.35
37291;BME280;23175;-33.706;151.094;2023-08-30T00:03:56;99669.82;;;17.49;29.36
37291;BME280;23175;-33.706;151.094;2023-08-30T00:06:26;99664.92;;;16.92;29.94
37291;BME280;23175;-33.706;151.094;2023-08-30T00:08:56;99657.14;;;17.08;30.05
37291;BME280;23175;-33.706;151.094;2023-08-30T00:11:28;99655.15;;;13.70;33.37
37291;BME280;23175;-33.706;151.094;2023-08-30T00:14:04;99647.21;;;14.59;32.36
37291;BME280;23175;-33.706;151.094;2023-08-30T00:16:35;99643.72;;;14.67;33.46
37291;BME280;23175;-33.706;151.094;2023-08-30T00:19:06;99641.26;;;15.72;32.57
37291;BME280;23175;-33.706;151.094;2023-08-30T00:21:36;99637.49;;;15.65;33.18
37291;BME280;23175;-33.706;151.094;2023-08-30T00:24:06;99635.54;;;15.79;32.67
37291;BME280;23175;-33.706;151.094;2023-08-30T00:26:36;99630.75;;;16.31;32.49
37291;BME280;23175;-33.706;151.094;2023-08-30T00:29:07;99625.99;;;15.15;34.07
37291;BME280;23175;-33.706;151.094;2023-08-30T00:31:38;99622.55;;;15.97;31.68
37291;BME280;23175;-33.706;151.094;2023-08-30T00:34:07;99625.12;;;15.76;32.97
37291;BME280;23175;-33.706;151.094;2023-08-30T00:36:38;99620.73;;;15.44;31.91
37291;BME280;23175;-33.706;151.094;2023-08-30T00:39:08;99615.39;;;15.93;31.94
37291;BME280;23175;-33.706;151.094;2023-08-30T00:41:38;99608.87;;;15.67;32.90
37291;BME280;23175;-33.706;151.094;2023-08-30T00:44:09;99610.51;;;17.31;31.42
37291;BME280;23175;-33.706;151.094;2023-08-30T00:46:39;99603.53;;;19.77;29.80
37291;BME280;23175;-33.706;151.094;2023-08-30T00:49:10;99600.43;;;17.55;31.33
37291;BME280;23175;-33.706;151.094;2023-08-30T00:51:40;99601.55;;;15.49;32.48
37291;BME280;23175;-33.706;151.094;2023-08-30T00:54:10;99603.56;;;17.10;31.21
37291;BME280;23175;-33.706;151.094;2023-08-30T00:56:41;99601.18;;;17.03;31.23
37291;BME280;23175;-33.706;151.094;2023-08-30T00:59:12;99589.50;;;15.21;33.04
37291;BME280;23175;-33.706;151.094;2023-08-30T01:01:44;99586.05;;;15.83;33.24
37291;BME280;23175;-33.706;151.094;2023-08-30T01:04:15;99587.50;;;17.01;31.86
37291;BME280;23175;-33.706;151.094;2023-08-30T01:06:45;99584.55;;;15.44;32.91
37291;BME280;23175;-33.706;151.094;2023-08-30T01:09:15;99576.44;;;18.09;30.78
37291;BME280;23175;-33.706;151.094;2023-08-30T01:11:50;99584.07;;;16.92;31.85
37291;BME280;23175;-33.706;151.094;2023-08-30T01:14:25;99573.33;;;17.54;30.64
37291;BME280;23175;-33.706;151.094;2023-08-30T01:16:59;99569.72;;;15.88;31.62
37291;BME280;23175;-33.706;151.094;2023-08-30T01:19:42;99564.24;;;15.64;32.17
37291;BME280;23175;-33.706;151.094;2023-08-30T01:22:21;99564.40;;;16.66;31.44
37291;BME280;23175;-33.706;151.094;2023-08-30T01:25:05;99559.24;;;17.25;30.92
37291;BME280;23175;-33.706;151.094;2023-08-30T01:27:39;99559.17;;;15.99;32.91
37291;BME280;23175;-33.706;151.094;2023-08-30T01:30:10;99550.22;;;16.10;32.20
37291;BME280;23175;-33.706;151.094;2023-08-30T01:32:42;99546.08;;;16.37;31.88
37291;BME280;23175;-33.706;151.094;2023-08-30T01:35:14;99536.44;;;16.94;31.07
37291;BME280;23175;-33.706;151.094;2023-08-30T01:37:45;99533.00;;;17.15;32.37
37291;BME280;23175;-33.706;151.094;2023-08-30T01:40:17;99522.79;;;17.01;31.59
37291;BME280;23175;-33.706;151.094;2023-08-30T01:42:49;99517.29;;;16.89;31.79
37291;BME280;23175;-33.706;151.094;2023-08-30T01:45:22;99514.88;;;17.63;30.61
37291;BME280;23175;-33.706;151.094;2023-08-30T01:47:53;99508.34;;;17.43;31.55
37291;BME280;23175;-33.706;151.094;2023-08-30T01:50:24;99501.51;;;17.03;32.23
37291;BME280;23175;-33.706;151.094;2023-08-30T01:52:55;99493.53;;;16.91;32.07
37291;BME280;23175;-33.706;151.094;2023-08-30T01:55:26;99491.16;;;17.43;31.81
37291;BME280;23175;-33.706;151.094;2023-08-30T01:57:57;99486.90;;;16.61;32.25
37291;BME280;23175;-33.706;151.094;2023-08-30T02:00:28;99477.18;;;18.30;30.24
37291;BME280;23175;-33.706;151.094;2023-08-30T02:02:58;99472.29;;;18.31;30.05
37291;BME280;23175;-33.706;151.094;2023-08-30T02:05:29;99471.27;;;16.93;32.26
37291;BME280;23175;-33.706;151.094;2023-08-30T02:08:04;99466.50;;;16.53;31.71
37291;BME280;23175;-33.706;151.094;2023-08-30T02:10:37;99451.37;;;17.27;31.63
37291;BME280;23175;-33.706;151.094;2023-08-30T02:13:12;99456.57;;;16.91;32.19
37291;BME280;23175;-33.706;151.094;2023-08-30T02:15:44;99448.93;;;16.75;31.55
37291;BME280;23175;-33.706;151.094;2023-08-30T02:18:16;99440.64;;;18.72;29.54
37291;BME280;23175;-33.706;151.094;2023-08-30T02:20:47;99435.48;;;19.25;28.93
37291;BME280;23175;-33.706;151.094;2023-08-30T02:23:17;99427.12;;;17.10;30.67
37291;BME280;23175;-33.706;151.094;2023-08-30T02:25:48;99419.57;;;17.66;29.68
37291;BME280;23175;-33.706;151.094;2023-08-30T02:28:18;99423.18;;;17.61;30.38
37291;BME280;23175;-33.706;151.094;2023-08-30T02:30:49;99411.98;;;17.21;29.38
37291;BME280;23175;-33.706;151.094;2023-08-30T02:33:19;99421.27;;;18.22;28.25
37291;BME280;23175;-33.706;151.094;2023-08-30T02:35:50;99399.40;;;17.01;27.67
37291;BME280;23175;-33.706;151.094;2023-08-30T02:38:20;99399.57;;;19.15;26.05
37291;BME280;23175;-33.706;151.094;2023-08-30T02:40:50;99385.77;;;17.26;26.55
37291;BME280;23175;-33.706;151.094;2023-08-30T02:43:21;99385.85;;;17.93;26.99
37291;BME280;23175;-33.706;151.094;2023-08-30T02:45:51;99390.29;;;16.41;27.95
37291;BME280;23175;-33.706;151.094;2023-08-30T02:48:22;99379.80;;;17.70;27.26
37291;BME280;23175;-33.706;151.094;2023-08-30T02:50:52;99368.14;;;16.12;28.29
37291;BME280;23175;-33.706;151.094;2023-08-30T02:53:22;99369.35;;;16.86;27.99
37291;BME280;23175;-33.706;151.094;2023-08-30T02:55:53;99362.62;;;18.19;26.28
37291;BME280;23175;-33.706;151.094;2023-08-30T02:58:23;99362.97;;;17.69;26.56
37291;BME280;23175;-33.706;151.094;2023-08-30T03:00:54;99357.63;;;17.44;26.52
37291;BME280;23175;-33.706;151.094;2023-08-30T03:03:24;99358.96;;;19.08;25.80
37291;BME280;23175;-33.706;151.094;2023-08-30T03:05:55;99347.40;;;17.94;26.66
37291;BME280;23175;-33.706;151.094;2023-08-30T03:08:25;99338.64;;;17.31;26.72
37291;BME280;23175;-33.706;151.094;2023-08-30T03:10:56;99329.33;;;18.50;25.65
37291;BME280;23175;-33.706;151.094;2023-08-30T03:13:27;99331.75;;;17.78;26.28
37291;BME280;23175;-33.706;151.094;2023-08-30T03:15:57;99334.72;;;20.31;25.04
37291;BME280;23175;-33.706;151.094;2023-08-30T03:18:27;99324.86;;;19.05;24.43
37291;BME280;23175;-33.706;151.094;2023-08-30T03:21:02;99315.68;;;17.49;26.46
37291;BME280;23175;-33.706;151.094;2023-08-30T03:23:33;99317.55;;;18.00;25.95
37291;BME280;23175;-33.706;151.094;2023-08-30T03:26:09;99315.75;;;17.80;27.14
37291;BME280;23175;-33.706;151.094;2023-08-30T03:28:40;99322.42;;;18.45;27.36
37291;BME280;23175;-33.706;151.094;2023-08-30T03:31:15;99306.56;;;17.25;27.58
37291;BME280;23175;-33.706;151.094;2023-08-30T03:33:46;99300.55;;;18.81;25.87
37291;BME280;23175;-33.706;151.094;2023-08-30T03:36:17;99289.13;;;18.74;26.52
37291;BME280;23175;-33.706;151.094;2023-08-30T03:38:48;99305.45;;;18.39;26.73
37291;BME280;23175;-33.706;151.094;2023-08-30T03:41:19;99291.23;;;17.51;26.92
37291;BME280;23175;-33.706;151.094;2023-08-30T03:43:49;99290.87;;;17.54;26.85
37291;BME280;23175;-33.706;151.094;2023-08-30T03:46:20;99285.96;;;18.37;26.19
37291;BME280;23175;-33.706;151.094;2023-08-30T03:48:50;99284.17;;;18.78;25.09
37291;BME280;23175;-33.706;151.094;2023-08-30T03:51:20;99283.25;;;19.39;25.33
37291;BME280;23175;-33.706;151.094;2023-08-30T03:53:50;99280.57;;;17.64;25.75
37291;BME280;23175;-33.706;151.094;2023-08-30T03:56:21;99270.95;;;18.68;25.31
37291;BME280;23175;-33.706;151.094;2023-08-30T03:58:51;99280.82;;;17.78;25.86
37291;BME280;23175;-33.706;151.094;2023-08-30T04:01:21;99274.30;;;17.52;25.88
37291;BME280;23175;-33.706;151.094;2023-08-30T04:03:51;99270.41;;;18.09;25.36
37291;BME280;23175;-33.706;151.094;2023-08-30T04:06:22;99272.19;;;19.87;25.67
37291;BME280;23175;-33.706;151.094;2023-08-30T04:08:52;99271.08;;;17.59;27.53
37291;BME280;23175;-33.706;151.094;2023-08-30T04:11:22;99272.53;;;19.48;27.38
37291;BME280;23175;-33.706;151.094;2023-08-30T04:13:53;99276.16;;;20.06;27.64
37291;BME280;23175;-33.706;151.094;2023-08-30T04:16:23;99267.06;;;21.26;26.93
37291;BME280;23175;-33.706;151.094;2023-08-30T04:18:53;99268.97;;;16.69;30.97
37291;BME280;23175;-33.706;151.094;2023-08-30T04:21:24;99256.87;;;17.31;27.35
37291;BME280;23175;-33.706;151.094;2023-08-30T04:23:54;99258.85;;;18.08;26.89
37291;BME280;23175;-33.706;151.094;2023-08-30T04:26:24;99257.49;;;17.12;28.86
37291;BME280;23175;-33.706;151.094;2023-08-30T04:28:54;99249.72;;;20.90;26.39
37291;BME280;23175;-33.706;151.094;2023-08-30T04:31:25;99253.69;;;20.96;25.97
37291;BME280;23175;-33.706;151.094;2023-08-30T04:33:55;99257.54;;;17.19;28.53
37291;BME280;23175;-33.706;151.094;2023-08-30T04:36:25;99252.88;;;21.87;25.40
37291;BME280;23175;-33.706;151.094;2023-08-30T04:38:56;99259.21;;;17.93;27.84
37291;BME280;23175;-33.706;151.094;2023-08-30T04:41:26;99255.36;;;17.37;27.90
37291;BME280;23175;-33.706;151.094;2023-08-30T04:43:56;99250.22;;;20.19;24.46
37291;BME280;23175;-33.706;151.094;2023-08-30T04:46:26;99255.73;;;17.15;27.34
37291;BME280;23175;-33.706;151.094;2023-08-30T04:48:57;99255.90;;;17.76;26.54
37291;BME280;23175;-33.706;151.094;2023-08-30T04:51:27;99253.14;;;17.43;25.89
37291;BME280;23175;-33.706;151.094;2023-08-30T04:53:57;99252.62;;;18.31;25.12
37291;BME280;23175;-33.706;151.094;2023-08-30T04:56:28;99246.41;;;22.00;22.96
37291;BME280;23175;-33.706;151.094;2023-08-30T04:58:58;99250.60;;;18.63;26.10
37291;BME280;23175;-33.706;151.094;2023-08-30T05:01:28;99243.34;;;19.63;24.31
37291;BME280;23175;-33.706;151.094;2023-08-30T05:03:58;99240.72;;;18.84;24.87
37291;BME280;23175;-33.706;151.094;2023-08-30T05:06:28;99239.26;;;18.53;25.03
37291;BME280;23175;-33.706;151.094;2023-08-30T05:08:58;99238.64;;;17.92;25.57
37291;BME280;23175;-33.706;151.094;2023-08-30T05:11:29;99237.65;;;19.11;24.38
37291;BME280;23175;-33.706;151.094;2023-08-30T05:14:00;99237.67;;;21.28;23.55
37291;BME280;23175;-33.706;151.094;2023-08-30T05:16:29;99239.09;;;20.85;24.12
37291;BME280;23175;-33.706;151.094;2023-08-30T05:19:00;99241.82;;;21.15;24.17
37291;BME280;23175;-33.706;151.094;2023-08-30T05:21:30;99242.20;;;20.22;24.35
37291;BME280;23175;-33.706;151.094;2023-08-30T05:24:00;99234.95;;;19.09;24.20
37291;BME280;23175;-33.706;151.094;2023-08-30T05:26:30;99234.08;;;19.74;24.54
37291;BME280;23175;-33.706;151.094;2023-08-30T05:29:01;99234.13;;;21.20;23.44
37291;BME280;23175;-33.706;151.094;2023-08-30T05:31:31;99226.60;;;23.28;22.07
37291;BME280;23175;-33.706;151.094;2023-08-30T05:34:01;99230.89;;;23.76;21.94
37291;BME280;23175;-33.706;151.094;2023-08-30T05:36:31;99228.87;;;20.74;22.54
37291;BME280;23175;-33.706;151.094;2023-08-30T05:39:01;99233.19;;;21.34;22.05
37291;BME280;23175;-33.706;151.094;2023-08-30T05:41:32;99237.20;;;17.68;25.84
37291;BME280;23175;-33.706;151.094;2023-08-30T05:44:03;99237.50;;;20.74;23.40
37291;BME280;23175;-33.706;151.094;2023-08-30T05:46:33;99243.40;;;20.27;25.06
37291;BME280;23175;-33.706;151.094;2023-08-30T05:49:04;99248.91;;;18.64;28.96
37291;BME280;23175;-33.706;151.094;2023-08-30T05:51:34;99249.75;;;18.58;30.21
37291;BME280;23175;-33.706;151.094;2023-08-30T05:54:05;99249.72;;;18.44;30.93
37291;BME280;23175;-33.706;151.094;2023-08-30T05:56:35;99251.27;;;20.00;29.50
37291;BME280;23175;-33.706;151.094;2023-08-30T05:59:05;99256.08;;;20.35;28.99
37291;BME280;23175;-33.706;151.094;2023-08-30T06:01:35;99259.77;;;21.27;28.16
37291;BME280;23175;-33.706;151.094;2023-08-30T06:04:06;99266.02;;;18.75;29.18
37291;BME280;23175;-33.706;151.094;2023-08-30T06:06:36;99274.71;;;17.87;29.88
37291;BME280;23175;-33.706;151.094;2023-08-30T06:09:06;99278.10;;;20.17;27.41
37291;BME280;23175;-33.706;151.094;2023-08-30T06:11:36;99284.25;;;18.74;28.62
37291;BME280;23175;-33.706;151.094;2023-08-30T06:14:07;99294.88;;;21.69;25.90
37291;BME280;23175;-33.706;151.094;2023-08-30T06:17:09;99320.51;;;20.46;27.33
37291;BME280;23175;-33.706;151.094;2023-08-30T06:19:39;99374.20;;;19.09;29.03
37291;BME280;23175;-33.706;151.094;2023-08-30T06:22:09;99429.56;;;16.31;32.28
37291;BME280;23175;-33.706;151.094;2023-08-30T06:24:39;99428.14;;;12.63;39.00
37291;BME280;23175;-33.706;151.094;2023-08-30T06:27:09;99431.46;;;12.97;40.24
37291;BME280;23175;-33.706;151.094;2023-08-30T06:29:40;99434.39;;;12.63;42.07
37291;BME280;23175;-33.706;151.094;2023-08-30T06:32:10;99451.82;;;14.11;40.07
37291;BME280;23175;-33.706;151.094;2023-08-30T06:34:40;99459.57;;;12.94;42.00
37291;BME280;23175;-33.706;151.094;2023-08-30T06:37:10;99476.68;;;14.16;40.35
37291;BME280;23175;-33.706;151.094;2023-08-30T06:39:41;99474.61;;;13.14;41.70
37291;BME280;23175;-33.706;151.094;2023-08-30T06:42:11;99507.23;;;11.89;43.09
37291;BME280;23175;-33.706;151.094;2023-08-30T06:44:41;99514.90;;;12.21;43.17
37291;BME280;23175;-33.706;151.094;2023-08-30T06:47:12;99535.85;;;12.44;44.25
37291;BME280;23175;-33.706;151.094;2023-08-30T06:49:42;99543.76;;;13.69;43.52
37291;BME280;23175;-33.706;151.094;2023-08-30T06:52:13;99550.20;;;13.26;46.76
37291;BME280;23175;-33.706;151.094;2023-08-30T06:54:43;99554.88;;;13.43;48.02
37291;BME280;23175;-33.706;151.094;2023-08-30T06:57:13;99542.46;;;11.11;54.05
37291;BME280;23175;-33.706;151.094;2023-08-30T06:59:43;99535.62;;;10.12;56.52
37291;BME280;23175;-33.706;151.094;2023-08-30T07:02:13;99543.26;;;11.34;54.64
37291;BME280;23175;-33.706;151.094;2023-08-30T07:04:43;99541.97;;;10.65;56.89
37291;BME280;23175;-33.706;151.094;2023-08-30T07:07:14;99540.44;;;11.22;56.09
37291;BME280;23175;-33.706;151.094;2023-08-30T07:09:44;99549.80;;;12.89;53.17
37291;BME280;23175;-33.706;151.094;2023-08-30T07:12:15;99558.92;;;11.83;54.86
37291;BME280;23175;-33.706;151.094;2023-08-30T07:14:45;99562.77;;;12.56;54.58
37291;BME280;23175;-33.706;151.094;2023-08-30T07:17:16;99561.56;;;13.66;53.00
37291;BME280;23175;-33.706;151.094;2023-08-30T07:19:46;99573.37;;;12.67;55.10
37291;BME280;23175;-33.706;151.094;2023-08-30T07:22:15;99580.69;;;12.03;56.85
37291;BME280;23175;-33.706;151.094;2023-08-30T07:24:46;99576.62;;;12.01;56.95
37291;BME280;23175;-33.706;151.094;2023-08-30T07:27:16;99584.49;;;10.83;58.89
37291;BME280;23175;-33.706;151.094;2023-08-30T07:29:47;99590.54;;;10.57;58.96
37291;BME280;23175;-33.706;151.094;2023-08-30T07:32:17;99605.73;;;12.41;57.80
37291;BME280;23175;-33.706;151.094;2023-08-30T07:34:47;99626.39;;;12.30;57.15
37291;BME280;23175;-33.706;151.094;2023-08-30T07:37:21;99642.13;;;10.96;58.97
37291;BME280;23175;-33.706;151.094;2023-08-30T07:39:53;99649.85;;;11.15;58.86
37291;BME280;23175;-33.706;151.094;2023-08-30T07:42:23;99656.14;;;13.93;54.67
37291;BME280;23175;-33.706;151.094;2023-08-30T10:58:03;99701.60;;;15.14;55.29
37291;BME280;23175;-33.706;151.094;2023-08-30T11:00:33;99705.93;;;15.85;53.35
37291;BME280;23175;-33.706;151.094;2023-08-30T11:03:04;99706.66;;;15.74;53.39
37291;BME280;23175;-33.706;151.094;2023-08-30T11:05:42;99705.42;;;15.85;51.51
37291;BME280;23175;-33.706;151.094;2023-08-30T11:08:12;99699.95;;;15.87;50.68
37291;BME280;23175;-33.706;151.094;2023-08-30T11:10:43;99696.37;;;15.94;50.77
37291;BME280;23175;-33.706;151.094;2023-08-30T11:13:15;99695.62;;;13.84;53.98
37291;BME280;23175;-33.706;151.094;2023-08-30T11:15:45;99686.03;;;15.81;49.92
37291;BME280;23175;-33.706;151.094;2023-08-30T11:18:20;99682.72;;;15.86;50.17
37291;BME280;23175;-33.706;151.094;2023-08-30T11:20:58;99678.99;;;15.13;51.31
37291;BME280;23175;-33.706;151.094;2023-08-30T11:23:29;99677.20;;;15.99;49.61
37291;BME280;23175;-33.706;151.094;2023-08-30T11:25:59;99674.04;;;15.77;51.08
37291;BME280;23175;-33.706;151.094;2023-08-30T11:28:30;99674.18;;;15.91;51.00
37291;BME280;23175;-33.706;151.094;2023-08-30T11:31:00;99675.01;;;16.33;49.25
37291;BME280;23175;-33.706;151.094;2023-08-30T11:33:30;99679.23;;;16.40;49.71
37291;BME280;23175;-33.706;151.094;2023-08-30T11:36:01;99695.72;;;15.82;50.41
37291;BME280;23175;-33.706;151.094;2023-08-30T11:38:31;99691.43;;;12.81;57.42
37291;BME280;23175;-33.706;151.094;2023-08-30T11:41:01;99692.41;;;11.92;58.96
37291;BME280;23175;-33.706;151.094;2023-08-30T11:43:31;99691.85;;;14.78;52.77
37291;BME280;23175;-33.706;151.094;2023-08-30T11:46:03;99688.85;;;14.46;53.45
37291;BME280;23175;-33.706;151.094;2023-08-30T11:48:34;99688.60;;;15.59;51.20
37291;BME280;23175;-33.706;151.094;2023-08-30T11:51:04;99686.86;;;15.10;51.48
37291;BME280;23175;-33.706;151.094;2023-08-30T11:53:35;99683.77;;;15.39;51.38
37291;BME280;23175;-33.706;151.094;2023-08-30T11:56:06;99685.47;;;13.24;54.40
37291;BME280;23175;-33.706;151.094;2023-08-30T11:58:37;99680.76;;;14.23;53.54
37291;BME280;23175;-33.706;151.094;2023-08-30T12:01:09;99679.16;;;15.02;51.99
37291;BME280;23175;-33.706;151.094;2023-08-30T12:03:38;99683.00;;;14.07;53.02
37291;BME280;23175;-33.706;151.094;2023-08-30T12:06:12;99677.51;;;15.21;51.37
37291;BME280;23175;-33.706;151.094;2023-08-30T12:08:42;99673.64;;;14.25;52.79
37291;BME280;23175;-33.706;151.094;2023-08-30T12:11:20;99675.92;;;14.39;52.61
37291;BME280;23175;-33.706;151.094;2023-08-30T12:13:50;99670.65;;;14.45;53.05
37291;BME280;23175;-33.706;151.094;2023-08-30T12:16:20;99670.39;;;14.93;51.38
37291;BME280;23175;-33.706;151.094;2023-08-30T12:18:56;99668.70;;;15.51;50.29
37291;BME280;23175;-33.706;151.094;2023-08-30T12:21:41;99670.50;;;15.72;50.36
37291;BME280;23175;-33.706;151.094;2023-08-30T12:24:12;99673.35;;;14.12;52.67
37291;BME280;23175;-33.706;151.094;2023-08-30T12:26:42;99671.75;;;13.81;53.21
37291;BME280;23175;-33.706;151.094;2023-08-30T12:29:12;99670.88;;;13.96;53.65
37291;BME280;23175;-33.706;151.094;2023-08-30T12:31:42;99668.19;;;14.61;52.80
37291;BME280;23175;-33.706;151.094;2023-08-30T12:34:12;99669.54;;;14.37;52.32
37291;BME280;23175;-33.706;151.094;2023-08-30T12:36:42;99672.20;;;14.88;51.73
37291;BME280;23175;-33.706;151.094;2023-08-30T12:39:13;99673.81;;;13.50;51.86
37291;BME280;23175;-33.706;151.094;2023-08-30T12:41:43;99676.45;;;14.22;52.91
37291;BME280;23175;-33.706;151.094;2023-08-30T12:44:13;99674.32;;;15.68;50.32
37291;BME280;23175;-33.706;151.094;2023-08-30T12:46:42;99672.33;;;15.40;50.52
37291;BME280;23175;-33.706;151.094;2023-08-30T12:49:12;99670.55;;;15.42;49.92
37291;BME280;23175;-33.706;151.094;2023-08-30T12:51:42;99666.76;;;14.68;50.94
37291;BME280;23175;-33.706;151.094;2023-08-30T12:54:12;99667.80;;;14.82;51.47
37291;BME280;23175;-33.706;151.094;2023-08-30T12:56:42;99669.24;;;15.12;50.24
37291;BME280;23175;-33.706;151.094;2023-08-30T12:59:11;99666.46;;;15.56;49.88
37291;BME280;23175;-33.706;151.094;2023-08-30T13:01:41;99666.10;;;15.04;51.28
37291;BME280;23175;-33.706;151.094;2023-08-30T13:04:11;99666.12;;;15.30;50.23
37291;BME280;23175;-33.706;151.094;2023-08-30T13:06:41;99669.38;;;15.54;50.04
37291;BME280;23175;-33.706;151.094;2023-08-30T13:09:11;99671.56;;;15.53;49.37
37291;BME280;23175;-33.706;151.094;2023-08-30T13:11:40;99672.16;;;15.39;49.75
37291;BME280;23175;-33.706;151.094;2023-08-30T13:14:11;99677.69;;;14.69;50.40
37291;BME280;23175;-33.706;151.094;2023-08-30T13:16:40;99681.49;;;14.93;51.14
37291;BME280;23175;-33.706;151.094;2023-08-30T13:19:10;99691.68;;;11.61;55.88
37291;BME280;23175;-33.706;151.094;2023-08-30T13:21:40;99693.21;;;13.96;52.04
37291;BME280;23175;-33.706;151.094;2023-08-30T13:24:10;99690.40;;;10.73;57.57
37291;BME280;23175;-33.706;151.094;2023-08-30T13:26:40;99692.28;;;11.31;57.85
37291;BME280;23175;-33.706;151.094;2023-08-30T13:29:10;99693.75;;;12.26;56.32
37291;BME280;23175;-33.706;151.094;2023-08-30T13:31:39;99697.55;;;13.90;52.96
37291;BME280;23175;-33.706;151.094;2023-08-30T13:34:09;99698.62;;;14.03;52.82
37291;BME280;23175;-33.706;151.094;2023-08-30T13:36:39;99696.90;;;14.38;51.75
37291;BME280;23175;-33.706;151.094;2023-08-30T13:39:09;99696.89;;;11.09;57.28
37291;BME280;23175;-33.706;151.094;2023-08-30T13:41:40;99696.33;;;13.07;53.86
37291;BME280;23175;-33.706;151.094;2023-08-30T13:44:13;99694.34;;;12.91;54.88
37291;BME280;23175;-33.706;151.094;2023-08-30T13:46:43;99693.71;;;14.20;52.73
37291;BME280;23175;-33.706;151.094;2023-08-30T13:49:14;99690.26;;;12.77;54.08
37291;BME280;23175;-33.706;151.094;2023-08-30T13:51:44;99687.59;;;14.19;51.49
37291;BME280;23175;-33.706;151.094;2023-08-30T13:54:14;99689.84;;;11.35;55.57
37291;BME280;23175;-33.706;151.094;2023-08-30T13:56:49;99693.11;;;11.30;56.87
37291;BME280;23175;-33.706;151.094;2023-08-30T13:59:19;99692.69;;;12.78;54.04
37291;BME280;23175;-33.706;151.094;2023-08-30T14:01:49;99689.76;;;12.17;54.65
37291;BME280;23175;-33.706;151.094;2023-08-30T14:04:18;99691.95;;;14.32;52.21
37291;BME280;23175;-33.706;151.094;2023-08-30T14:06:48;99694.11;;;11.98;54.54
37291;BME280;23175;-33.706;151.094;2023-08-30T14:09:18;99692.73;;;11.98;55.11
37291;BME280;23175;-33.706;151.094;2023-08-30T14:11:48;99689.49;;;14.56;50.32
37291;BME280;23175;-33.706;151.094;2023-08-30T14:14:18;99688.94;;;12.56;53.08
37291;BME280;23175;-33.706;151.094;2023-08-30T14:16:47;99687.14;;;12.33;52.66
37291;BME280;23175;-33.706;151.094;2023-08-30T14:19:18;99680.65;;;13.93;51.12
37291;BME280;23175;-33.706;151.094;2023-08-30T14:21:48;99677.05;;;14.04;50.78
37291;BME280;23175;-33.706;151.094;2023-08-30T14:24:19;99680.37;;;12.35;53.97
37291;BME280;23175;-33.706;151.094;2023-08-30T14:26:49;99685.07;;;12.41;54.15
37291;BME280;23175;-33.706;151.094;2023-08-30T14:29:21;99685.87;;;14.03;51.08
37291;BME280;23175;-33.706;151.094;2023-08-30T14:31:51;99688.85;;;13.59;51.94
37291;BME280;23175;-33.706;151.094;2023-08-30T14:34:24;99684.46;;;13.74;51.26
37291;BME280;23175;-33.706;151.094;2023-08-30T14:36:55;99691.66;;;9.60;60.73
37291;BME280;23175;-33.706;151.094;2023-08-30T14:39:29;99688.88;;;11.31;56.52
37291;BME280;23175;-33.706;151.094;2023-08-30T14:41:59;99685.71;;;11.32;58.36
37291;BME280;23175;-33.706;151.094;2023-08-30T14:44:30;99683.93;;;11.96;56.22
37291;BME280;23175;-33.706;151.094;2023-08-30T14:47:00;99680.84;;;9.82;59.85
37291;BME280;23175;-33.706;151.094;2023-08-30T14:49:32;99674.33;;;10.36;59.55
37291;BME280;23175;-33.706;151.094;2023-08-30T14:52:02;99675.06;;;13.98;52.31
37291;BME280;23175;-33.706;151.094;2023-08-30T14:54:33;99673.93;;;11.24;57.24
37291;BME280;23175;-33.706;151.094;2023-08-30T14:57:08;99672.27;;;13.39;52.92
37291;BME280;23175;-33.706;151.094;2023-08-30T14:59:38;99667.06;;;11.28;58.36
37291;BME280;23175;-33.706;151.094;2023-08-30T15:02:08;99663.80;;;12.17;57.04
37291;BME280;23175;-33.706;151.094;2023-08-30T15:04:39;99656.46;;;11.39;57.41
37291;BME280;23175;-33.706;151.094;2023-08-30T15:07:10;99652.16;;;12.44;54.75
37291;BME280;23175;-33.706;151.094;2023-08-30T15:09:39;99650.54;;;10.93;57.31
37291;BME280;23175;-33.706;151.094;2023-08-30T15:12:09;99649.40;;;13.94;52.55
37291;BME280;23175;-33.706;151.094;2023-08-30T15:14:39;99645.14;;;13.88;51.85
37291;BME280;23175;-33.706;151.094;2023-08-30T15:17:09;99638.11;;;14.37;50.47
37291;BME280;23175;-33.706;151.094;2023-08-30T15:19:40;99638.82;;;13.47;52.50
37291;BME280;23175;-33.706;151.094;2023-08-30T15:22:09;99639.07;;;11.40;56.49
37291;BME280;23175;-33.706;151.094;2023-08-30T15:24:39;99637.22;;;11.81;57.42
37291;BME280;23175;-33.706;151.094;2023-08-30T15:27:09;99629.07;;;12.07;54.12
37291;BME280;23175;-33.706;151.094;2023-08-30T15:29:39;99627.62;;;11.73;55.22
37291;BME280;23175;-33.706;151.094;2023-08-30T15:32:09;99620.01;;;12.72;54.23
37291;BME280;23175;-33.706;151.094;2023-08-30T15:34:39;99618.36;;;14.18;51.11
37291;BME280;23175;-33.706;151.094;2023-08-30T15:37:08;99618.04;;;12.23;54.02
37291;BME280;23175;-33.706;151.094;2023-08-30T15:39:38;99618.07;;;11.48;55.39
37291;BME280;23175;-33.706;151.094;2023-08-30T15:42:08;99613.52;;;11.33;55.83
37291;BME280;23175;-33.706;151.094;2023-08-30T15:44:39;99608.94;;;13.85;52.16
37291;BME280;23175;-33.706;151.094;2023-08-30T15:47:09;99607.46;;;13.41;51.82
37291;BME280;23175;-33.706;151.094;2023-08-30T15:49:39;99607.51;;;9.49;59.00
37291;BME280;23175;-33.706;151.094;2023-08-30T15:52:09;99608.72;;;12.30;54.43
37291;BME280;23175;-33.706;151.094;2023-08-30T15:54:39;99610.36;;;13.98;50.59
37291;BME280;23175;-33.706;151.094;2023-08-30T15:57:09;99608.01;;;14.64;49.57
37291;BME280;23175;-33.706;151.094;2023-08-30T15:59:40;99615.41;;;11.64;53.81
37291;BME280;23175;-33.706;151.094;2023-08-30T16:02:09;99613.98;;;14.32;49.27